Flight Track Log - Related Links

Times and Time Zones

All times are in EDT time to prevent confusion due to time zone crossing. See the N14053 flight status page for this flight to view local times or setup timezone preferences in your user account.

Time Position Orientation Groundspeed Altitude Reporting Facility
EDT Latitude Longitude Course Direction KTS MPH feet Rate Location/Type
Mon 12:05:22 PM 33.6586 -114.3611 266° West 100 115 10,500  Level Albuquerque Center
Mon 12:05:53 PM 33.6575 -114.3789 266° West 101 116 10,500 -65 Level Los Angeles Center
Mon 12:06:55 PM 33.6489 -114.4122 253° West 104 120 10,400  Descending Los Angeles Center
Mon 12:07:57 PM 33.6450 -114.4464 262° West 104 120 10,500 97 Climbing Los Angeles Center
Mon 12:08:59 PM 33.6394 -114.4800 259° West 104 120 10,600  Climbing Los Angeles Center
Mon 12:10:01 PM 33.6339 -114.5197 260° West 101 116 10,500 -48 Descending Los Angeles Center
Mon 12:11:03 PM 33.6289 -114.5536 260° West 105 121 10,500  Level Los Angeles Center
Mon 12:12:05 PM 33.6283 -114.5881 269° West 104 120 10,500  Level Los Angeles Center
Mon 12:13:07 PM 33.6233 -114.6236 260° West 102 117 10,500  Level Los Angeles Center
Mon 12:14:09 PM 33.6231 -114.6558 269° West 105 121 10,500  Level Los Angeles Center
Mon 12:15:11 PM 33.6303 -114.6908 284° West 108 124 10,500  Level Los Angeles Center
Mon 12:16:13 PM 33.6331 -114.7303 275° West 100 115 10,500  Level Los Angeles Center
Mon 12:17:15 PM 33.6347 -114.7636 273° West 100 115 10,500  Level Los Angeles Center
Mon 12:18:17 PM 33.6372 -114.7983 275° West 103 119 10,500  Level Los Angeles Center
Mon 12:19:31 PM 33.6383 -114.8342 272° West 107 123 10,500  Level Los Angeles Center
Mon 12:20:34 PM 33.6464 -114.8789 282° West 112 129 10,500  Level Los Angeles Center
Mon 12:21:36 PM 33.6547 -114.9211 283° West 109 125 10,500 48 Level Los Angeles Center
Mon 12:22:38 PM 33.6592 -114.9567 279° West 109 125 10,600  Climbing Los Angeles Center
Mon 12:23:40 PM 33.6636 -114.9928 278° West 109 125 10,500 -48 Descending Los Angeles Center
Mon 12:24:42 PM 33.6683 -115.0286 279° West 110 127 10,500 48 Level Los Angeles Center
Mon 12:25:44 PM 33.6664 -115.0639 266° West 107 123 10,600 48 Climbing Los Angeles Center
Mon 12:26:47 PM 33.6672 -115.1000 272° West 107 123 10,600 -48 Level Los Angeles Center
Mon 12:27:49 PM 33.6800 -115.1456 289° West 116 133 10,500 -97 Descending Los Angeles Center
Mon 12:28:51 PM 33.6897 -115.1825 288° West 117 135 10,400 -48 Descending Los Angeles Center
Mon 12:29:53 PM 33.6969 -115.2178 284° West 112 129 10,400  Level Los Angeles Center
Mon 12:30:55 PM 33.7031 -115.2528 282° West 108 124 10,400 48 Level Los Angeles Center
Mon 12:31:57 PM 33.7056 -115.2819 276° West 109 125 10,500  Climbing Los Angeles Center
Mon 12:32:59 PM 33.7067 -115.3339 271° West 111 128 10,400 -44 Descending Los Angeles Center
Mon 12:34:13 PM 33.7081 -115.3689 273° West 107 123 10,400 -44 Level Los Angeles Center
Mon 12:35:16 PM 33.7044 -115.4050 263° West 107 123 10,300 -96 Descending Los Angeles Center
Mon 12:36:18 PM 33.6981 -115.4467 260° West 106 122 10,200 -242 Descending Los Angeles Center
Mon 12:37:20 PM 33.6939 -115.4853 263° West 110 127 9,800 -387 Descending Los Angeles Center
Mon 12:38:22 PM 33.6908 -115.5261 265° West 117 135 9,400 -336 Descending Los Angeles Center
Mon 12:39:25 PM 33.6897 -115.5728 268° West 117 135 9,100 -192 Descending Los Angeles Center
Mon 12:40:27 PM 33.6906 -115.6083 272° West 111 128 9,000 -48 Descending Los Angeles Center
Mon 12:41:29 PM 33.6911 -115.6439 271° West 109 125 9,000  Level Los Angeles Center
Mon 12:42:32 PM 33.6936 -115.6797 275° West 106 122 9,000 -48 Level Los Angeles Center
Mon 12:43:33 PM 33.6950 -115.7153 273° West 106 122 8,900 -195 Descending Los Angeles Center
Mon 12:44:35 PM 33.6911 -115.7606 264° West 111 128 8,600 -290 Descending Los Angeles Center
Mon 12:45:37 PM 33.6889 -115.7989 266° West 114 131 8,300 -290 Descending Los Angeles Center
Mon 12:46:39 PM 33.6928 -115.8364 277° West 113 130 8,000 -288 Descending Los Angeles Center
Mon 12:47:42 PM 33.6964 -115.8739 277° West 113 130 7,700 -240 Descending Los Angeles Center
Mon 12:48:44 PM 33.7011 -115.9100 279° West 112 129 7,500 -194 Descending Los Angeles Center
Mon 12:49:46 PM 33.7064 -115.9433 281° West 108 124 7,300 -194 Descending Los Angeles Center

Login

Don't have an account? Register now (free) for customized features, flight alerts, and more!